sensor_id;sensor_type;location;lat;lon;timestamp;temperature;humidity
3186;DHT22;1604;53.700;10.252;2023-06-04T00:01:42;9.00;99.90
3186;DHT22;1604;53.700;10.252;2023-06-04T00:04:46;9.00;99.90
3186;DHT22;1604;53.700;10.252;2023-06-04T00:07:49;8.90;99.90
3186;DHT22;1604;53.700;10.252;2023-06-04T00:10:51;8.90;99.90
3186;DHT22;1604;53.700;10.252;2023-06-04T00:13:53;8.90;99.90
3186;DHT22;1604;53.700;10.252;2023-06-04T00:16:55;8.80;99.90
3186;DHT22;1604;53.700;10.252;2023-06-04T00:19:57;8.80;99.90
3186;DHT22;1604;53.700;10.252;2023-06-04T00:23:00;8.70;99.90
3186;DHT22;1604;53.700;10.252;2023-06-04T00:26:05;8.60;99.90
3186;DHT22;1604;53.700;10.252;2023-06-04T00:29:07;8.60;99.90
3186;DHT22;1604;53.700;10.252;2023-06-04T00:32:09;8.50;99.90
3186;DHT22;1604;53.700;10.252;2023-06-04T00:35:11;8.50;99.90
3186;DHT22;1604;53.700;10.252;2023-06-04T00:38:14;8.40;99.90
3186;DHT22;1604;53.700;10.252;2023-06-04T00:41:16;8.40;99.90
3186;DHT22;1604;53.700;10.252;2023-06-04T00:44:18;8.30;99.90
3186;DHT22;1604;53.700;10.252;2023-06-04T00:47:22;8.30;99.90
3186;DHT22;1604;53.700;10.252;2023-06-04T00:50:25;8.20;99.90
3186;DHT22;1604;53.700;10.252;2023-06-04T00:53:28;8.10;99.90
3186;DHT22;1604;53.700;10.252;2023-06-04T00:56:30;8.10;99.90
3186;DHT22;1604;53.700;10.252;2023-06-04T00:59:33;8.10;99.90
3186;DHT22;1604;53.700;10.252;2023-06-04T01:02:38;8.00;99.90
3186;DHT22;1604;53.700;10.252;2023-06-04T01:05:47;8.00;99.90
3186;DHT22;1604;53.700;10.252;2023-06-04T01:08:51;8.00;99.90
3186;DHT22;1604;53.700;10.252;2023-06-04T01:11:55;7.90;99.90
3186;DHT22;1604;53.700;10.252;2023-06-04T01:14:58;7.90;99.90
3186;DHT22;1604;53.700;10.252;2023-06-04T01:18:00;7.80;99.90
3186;DHT22;1604;53.700;10.252;2023-06-04T01:21:08;7.80;99.90
3186;DHT22;1604;53.700;10.252;2023-06-04T01:24:11;7.70;99.90
3186;DHT22;1604;53.700;10.252;2023-06-04T01:27:13;7.70;99.90
3186;DHT22;1604;53.700;10.252;2023-06-04T01:30:16;7.60;99.90
3186;DHT22;1604;53.700;10.252;2023-06-04T01:33:19;7.60;99.90
3186;DHT22;1604;53.700;10.252;2023-06-04T01:36:21;7.50;99.90
3186;DHT22;1604;53.700;10.252;2023-06-04T01:39:24;7.50;99.90
3186;DHT22;1604;53.700;10.252;2023-06-04T01:42:26;7.50;99.90
3186;DHT22;1604;53.700;10.252;2023-06-04T01:45:29;7.40;99.90
3186;DHT22;1604;53.700;10.252;2023-06-04T01:48:31;7.40;99.90
3186;DHT22;1604;53.700;10.252;2023-06-04T01:51:33;7.40;99.90
3186;DHT22;1604;53.700;10.252;2023-06-04T01:54:37;7.30;99.90
3186;DHT22;1604;53.700;10.252;2023-06-04T01:57:40;7.30;99.90
3186;DHT22;1604;53.700;10.252;2023-06-04T02:00:41;7.30;99.90
3186;DHT22;1604;53.700;10.252;2023-06-04T02:03:44;7.20;99.90
3186;DHT22;1604;53.700;10.252;2023-06-04T02:06:45;7.20;99.90
3186;DHT22;1604;53.700;10.252;2023-06-04T02:09:50;7.20;99.90
3186;DHT22;1604;53.700;10.252;2023-06-04T02:12:54;7.10;99.90
3186;DHT22;1604;53.700;10.252;2023-06-04T02:15:56;7.10;99.90
3186;DHT22;1604;53.700;10.252;2023-06-04T02:18:58;7.00;99.90
3186;DHT22;1604;53.700;10.252;2023-06-04T02:22:01;7.00;99.90
3186;DHT22;1604;53.700;10.252;2023-06-04T02:25:05;7.00;99.90
3186;DHT22;1604;53.700;10.252;2023-06-04T02:28:09;6.90;99.90
3186;DHT22;1604;53.700;10.252;2023-06-04T02:31:11;6.90;99.90
3186;DHT22;1604;53.700;10.252;2023-06-04T02:34:13;6.80;99.90
3186;DHT22;1604;53.700;10.252;2023-06-04T02:37:16;6.80;99.90
3186;DHT22;1604;53.700;10.252;2023-06-04T02:40:19;6.80;99.90
3186;DHT22;1604;53.700;10.252;2023-06-04T02:43:21;6.80;99.90
3186;DHT22;1604;53.700;10.252;2023-06-04T02:46:23;6.70;99.90
3186;DHT22;1604;53.700;10.252;2023-06-04T02:49:25;6.70;99.90
3186;DHT22;1604;53.700;10.252;2023-06-04T02:52:27;6.60;99.90
3186;DHT22;1604;53.700;10.252;2023-06-04T02:55:30;6.60;99.90
3186;DHT22;1604;53.700;10.252;2023-06-04T02:58:32;6.60;99.90
3186;DHT22;1604;53.700;10.252;2023-06-04T03:01:39;6.60;99.90
3186;DHT22;1604;53.700;10.252;2023-06-04T03:04:41;6.50;99.90
3186;DHT22;1604;53.700;10.252;2023-06-04T03:07:45;6.50;99.90
3186;DHT22;1604;53.700;10.252;2023-06-04T03:10:50;6.50;99.90
3186;DHT22;1604;53.700;10.252;2023-06-04T03:13:52;6.50;99.90
3186;DHT22;1604;53.700;10.252;2023-06-04T03:16:54;6.40;99.90
3186;DHT22;1604;53.700;10.252;2023-06-04T03:19:56;6.50;99.90
3186;DHT22;1604;53.700;10.252;2023-06-04T03:22:58;6.40;99.90
3186;DHT22;1604;53.700;10.252;2023-06-04T03:26:02;6.40;99.90
3186;DHT22;1604;53.700;10.252;2023-06-04T03:29:05;6.40;99.90
3186;DHT22;1604;53.700;10.252;2023-06-04T03:32:07;6.40;99.90
3186;DHT22;1604;53.700;10.252;2023-06-04T03:35:09;6.40;99.90
3186;DHT22;1604;53.700;10.252;2023-06-04T03:38:11;6.30;99.90
3186;DHT22;1604;53.700;10.252;2023-06-04T03:41:14;6.30;99.90
3186;DHT22;1604;53.700;10.252;2023-06-04T03:44:17;6.30;99.90
3186;DHT22;1604;53.700;10.252;2023-06-04T03:47:19;6.40;99.90
3186;DHT22;1604;53.700;10.252;2023-06-04T03:50:21;6.40;99.90
3186;DHT22;1604;53.700;10.252;2023-06-04T03:53:23;6.40;99.90
3186;DHT22;1604;53.700;10.252;2023-06-04T03:56:26;6.40;99.90
3186;DHT22;1604;53.700;10.252;2023-06-04T03:59:28;6.40;99.90
3186;DHT22;1604;53.700;10.252;2023-06-04T04:02:31;6.40;99.90
3186;DHT22;1604;53.700;10.252;2023-06-04T04:05:36;6.40;99.90
3186;DHT22;1604;53.700;10.252;2023-06-04T04:08:39;6.40;99.90
3186;DHT22;1604;53.700;10.252;2023-06-04T04:11:44;6.50;99.90
3186;DHT22;1604;53.700;10.252;2023-06-04T04:14:46;6.50;99.90
3186;DHT22;1604;53.700;10.252;2023-06-04T04:17:48;6.60;99.90
3186;DHT22;1604;53.700;10.252;2023-06-04T04:20:50;6.70;99.90
3186;DHT22;1604;53.700;10.252;2023-06-04T04:23:53;6.80;99.90
3186;DHT22;1604;53.700;10.252;2023-06-04T04:26:56;6.90;99.90
3186;DHT22;1604;53.700;10.252;2023-06-04T04:29:59;7.10;99.90
3186;DHT22;1604;53.700;10.252;2023-06-04T04:33:02;7.20;99.90
3186;DHT22;1604;53.700;10.252;2023-06-04T04:36:05;7.30;99.90
3186;DHT22;1604;53.700;10.252;2023-06-04T04:39:13;7.50;99.90
3186;DHT22;1604;53.700;10.252;2023-06-04T04:42:16;7.60;99.90
3186;DHT22;1604;53.700;10.252;2023-06-04T04:45:18;7.80;99.90
3186;DHT22;1604;53.700;10.252;2023-06-04T04:48:20;7.90;99.90
3186;DHT22;1604;53.700;10.252;2023-06-04T04:51:22;8.10;99.90
3186;DHT22;1604;53.700;10.252;2023-06-04T04:54:24;8.30;99.90
3186;DHT22;1604;53.700;10.252;2023-06-04T04:57:29;8.50;99.90
3186;DHT22;1604;53.700;10.252;2023-06-04T05:00:31;8.60;99.90
3186;DHT22;1604;53.700;10.252;2023-06-04T05:03:33;8.80;99.90
3186;DHT22;1604;53.700;10.252;2023-06-04T05:06:36;9.00;99.90
3186;DHT22;1604;53.700;10.252;2023-06-04T05:09:40;9.20;99.90
3186;DHT22;1604;53.700;10.252;2023-06-04T05:12:52;9.40;99.90
3186;DHT22;1604;53.700;10.252;2023-06-04T05:15:54;9.60;99.90
3186;DHT22;1604;53.700;10.252;2023-06-04T05:18:57;9.90;99.90
3186;DHT22;1604;53.700;10.252;2023-06-04T05:21:59;10.20;99.90
3186;DHT22;1604;53.700;10.252;2023-06-04T05:25:01;10.40;99.90
3186;DHT22;1604;53.700;10.252;2023-06-04T05:28:04;10.70;99.90
3186;DHT22;1604;53.700;10.252;2023-06-04T05:31:08;11.00;99.90
3186;DHT22;1604;53.700;10.252;2023-06-04T05:34:10;11.30;99.90
3186;DHT22;1604;53.700;10.252;2023-06-04T05:37:16;11.60;99.90
3186;DHT22;1604;53.700;10.252;2023-06-04T05:40:18;11.80;99.90
3186;DHT22;1604;53.700;10.252;2023-06-04T05:43:22;12.10;99.90
3186;DHT22;1604;53.700;10.252;2023-06-04T05:46:24;12.40;99.90
3186;DHT22;1604;53.700;10.252;2023-06-04T05:49:26;12.60;99.90
3186;DHT22;1604;53.700;10.252;2023-06-04T05:52:28;12.80;99.90
3186;DHT22;1604;53.700;10.252;2023-06-04T05:55:30;13.00;99.90
3186;DHT22;1604;53.700;10.252;2023-06-04T05:58:34;13.30;99.90
3186;DHT22;1604;53.700;10.252;2023-06-04T06:01:36;13.50;99.30
3186;DHT22;1604;53.700;10.252;2023-06-04T06:04:38;13.70;98.30
3186;DHT22;1604;53.700;10.252;2023-06-04T06:07:41;14.00;98.00
3186;DHT22;1604;53.700;10.252;2023-06-04T06:10:42;14.20;97.10
3186;DHT22;1604;53.700;10.252;2023-06-04T06:13:46;14.30;96.20
3186;DHT22;1604;53.700;10.252;2023-06-04T06:16:48;14.50;96.00
3186;DHT22;1604;53.700;10.252;2023-06-04T06:19:50;14.80;95.30
3186;DHT22;1604;53.700;10.252;2023-06-04T06:22:52;15.10;93.90
3186;DHT22;1604;53.700;10.252;2023-06-04T06:25:57;15.30;92.50
3186;DHT22;1604;53.700;10.252;2023-06-04T06:29:03;15.50;92.10
3186;DHT22;1604;53.700;10.252;2023-06-04T06:32:05;15.70;91.50
3186;DHT22;1604;53.700;10.252;2023-06-04T06:35:07;15.90;90.50
3186;DHT22;1604;53.700;10.252;2023-06-04T06:38:09;16.10;89.00
3186;DHT22;1604;53.700;10.252;2023-06-04T06:41:11;16.20;87.00
3186;DHT22;1604;53.700;10.252;2023-06-04T06:44:15;16.30;88.80
3186;DHT22;1604;53.700;10.252;2023-06-04T06:47:17;16.50;88.80
3186;DHT22;1604;53.700;10.252;2023-06-04T06:50:18;16.70;87.50
3186;DHT22;1604;53.700;10.252;2023-06-04T06:53:23;17.00;87.70
3186;DHT22;1604;53.700;10.252;2023-06-04T06:56:25;17.20;85.30
3186;DHT22;1604;53.700;10.252;2023-06-04T06:59:29;17.40;83.20
3186;DHT22;1604;53.700;10.252;2023-06-04T07:02:31;17.50;80.80
3186;DHT22;1604;53.700;10.252;2023-06-04T07:05:32;17.60;79.80
3186;DHT22;1604;53.700;10.252;2023-06-04T07:08:35;17.80;79.40
3186;DHT22;1604;53.700;10.252;2023-06-04T07:11:36;17.90;79.10
3186;DHT22;1604;53.700;10.252;2023-06-04T07:14:40;18.00;74.60
3186;DHT22;1604;53.700;10.252;2023-06-04T07:17:42;18.20;74.80
3186;DHT22;1604;53.700;10.252;2023-06-04T07:20:44;18.30;73.80
3186;DHT22;1604;53.700;10.252;2023-06-04T07:23:46;18.50;72.20
3186;DHT22;1604;53.700;10.252;2023-06-04T07:26:50;18.70;72.60
3186;DHT22;1604;53.700;10.252;2023-06-04T07:29:53;18.80;69.90
3186;DHT22;1604;53.700;10.252;2023-06-04T07:32:55;18.90;70.50
3186;DHT22;1604;53.700;10.252;2023-06-04T07:35:57;19.10;73.00
3186;DHT22;1604;53.700;10.252;2023-06-04T07:38:59;19.30;71.10
3186;DHT22;1604;53.700;10.252;2023-06-04T07:42:02;19.40;70.20
3186;DHT22;1604;53.700;10.252;2023-06-04T07:45:07;19.60;66.90
3186;DHT22;1604;53.700;10.252;2023-06-04T07:48:09;19.70;67.60
3186;DHT22;1604;53.700;10.252;2023-06-04T07:51:13;20.00;65.80
3186;DHT22;1604;53.700;10.252;2023-06-04T07:54:16;20.30;66.80
3186;DHT22;1604;53.700;10.252;2023-06-04T07:57:17;20.50;64.10
3186;DHT22;1604;53.700;10.252;2023-06-04T08:00:21;20.70;62.80
3186;DHT22;1604;53.700;10.252;2023-06-04T08:03:23;20.80;61.80
3186;DHT22;1604;53.700;10.252;2023-06-04T08:06:25;20.90;62.10
3186;DHT22;1604;53.700;10.252;2023-06-04T08:09:28;21.10;60.50
3186;DHT22;1604;53.700;10.252;2023-06-04T08:12:30;21.30;59.70
3186;DHT22;1604;53.700;10.252;2023-06-04T08:15:33;21.40;57.70
3186;DHT22;1604;53.700;10.252;2023-06-04T08:18:37;21.50;59.30
3186;DHT22;1604;53.700;10.252;2023-06-04T08:21:39;21.60;58.10
3186;DHT22;1604;53.700;10.252;2023-06-04T08:24:43;21.70;57.70
3186;DHT22;1604;53.700;10.252;2023-06-04T08:27:45;21.90;56.70
3186;DHT22;1604;53.700;10.252;2023-06-04T08:30:49;21.90;56.70
3186;DHT22;1604;53.700;10.252;2023-06-04T08:33:50;22.00;55.80
3186;DHT22;1604;53.700;10.252;2023-06-04T08:36:52;22.20;53.70
3186;DHT22;1604;53.700;10.252;2023-06-04T08:39:54;22.30;54.20
3186;DHT22;1604;53.700;10.252;2023-06-04T08:42:56;22.40;54.30
3186;DHT22;1604;53.700;10.252;2023-06-04T08:46:03;22.60;51.30
3186;DHT22;1604;53.700;10.252;2023-06-04T08:49:08;22.80;52.50
3186;DHT22;1604;53.700;10.252;2023-06-04T08:52:10;22.80;53.10
3186;DHT22;1604;53.700;10.252;2023-06-04T08:55:13;22.90;53.60
3186;DHT22;1604;53.700;10.252;2023-06-04T08:58:16;23.00;51.60
3186;DHT22;1604;53.700;10.252;2023-06-04T09:01:20;23.10;51.40
3186;DHT22;1604;53.700;10.252;2023-06-04T09:04:23;23.30;50.30
3186;DHT22;1604;53.700;10.252;2023-06-04T09:07:25;23.20;50.20
3186;DHT22;1604;53.700;10.252;2023-06-04T09:10:29;23.40;49.30
3186;DHT22;1604;53.700;10.252;2023-06-04T09:13:33;23.50;51.10
3186;DHT22;1604;53.700;10.252;2023-06-04T09:16:44;23.70;49.30
3186;DHT22;1604;53.700;10.252;2023-06-04T09:19:46;23.80;49.90
3186;DHT22;1604;53.700;10.252;2023-06-04T09:22:48;24.00;48.80
3186;DHT22;1604;53.700;10.252;2023-06-04T09:25:50;24.20;47.40
3186;DHT22;1604;53.700;10.252;2023-06-04T09:28:53;24.30;47.80
3186;DHT22;1604;53.700;10.252;2023-06-04T09:31:59;24.30;48.10
3186;DHT22;1604;53.700;10.252;2023-06-04T09:35:09;24.50;49.30
3186;DHT22;1604;53.700;10.252;2023-06-04T09:38:12;24.60;48.90
3186;DHT22;1604;53.700;10.252;2023-06-04T09:41:15;24.80;46.50
3186;DHT22;1604;53.700;10.252;2023-06-04T09:44:20;24.80;47.20
3186;DHT22;1604;53.700;10.252;2023-06-04T09:47:23;24.80;46.50
3186;DHT22;1604;53.700;10.252;2023-06-04T09:50:26;24.80;47.50
3186;DHT22;1604;53.700;10.252;2023-06-04T09:53:29;24.80;47.50
3186;DHT22;1604;53.700;10.252;2023-06-04T09:56:39;25.00;46.70
3186;DHT22;1604;53.700;10.252;2023-06-04T09:59:44;25.20;46.70
3186;DHT22;1604;53.700;10.252;2023-06-04T10:02:48;25.20;46.20
3186;DHT22;1604;53.700;10.252;2023-06-04T10:05:52;25.30;47.90
3186;DHT22;1604;53.700;10.252;2023-06-04T10:08:55;25.40;46.70
3186;DHT22;1604;53.700;10.252;2023-06-04T10:11:59;25.40;46.20
3186;DHT22;1604;53.700;10.252;2023-06-04T10:15:06;25.60;44.90
3186;DHT22;1604;53.700;10.252;2023-06-04T10:18:10;25.70;46.40
3186;DHT22;1604;53.700;10.252;2023-06-04T10:21:13;25.80;46.00
3186;DHT22;1604;53.700;10.252;2023-06-04T10:24:16;26.10;44.80
3186;DHT22;1604;53.700;10.252;2023-06-04T10:27:18;26.00;45.10
3186;DHT22;1604;53.700;10.252;2023-06-04T10:30:21;25.90;44.50
3186;DHT22;1604;53.700;10.252;2023-06-04T10:33:24;25.90;45.50
3186;DHT22;1604;53.700;10.252;2023-06-04T10:36:26;25.80;44.60
3186;DHT22;1604;53.700;10.252;2023-06-04T10:39:30;26.00;45.90
3186;DHT22;1604;53.700;10.252;2023-06-04T10:42:38;26.10;45.50
3186;DHT22;1604;53.700;10.252;2023-06-04T10:45:41;26.10;44.20
3186;DHT22;1604;53.700;10.252;2023-06-04T10:48:49;26.00;45.60
3186;DHT22;1604;53.700;10.252;2023-06-04T10:51:51;26.20;45.00
3186;DHT22;1604;53.700;10.252;2023-06-04T10:55:03;26.10;44.60
3186;DHT22;1604;53.700;10.252;2023-06-04T10:58:05;26.20;45.70
3186;DHT22;1604;53.700;10.252;2023-06-04T11:01:08;26.40;44.20
3186;DHT22;1604;53.700;10.252;2023-06-04T11:04:20;26.60;43.60
3186;DHT22;1604;53.700;10.252;2023-06-04T11:07:23;26.60;43.00
3186;DHT22;1604;53.700;10.252;2023-06-04T11:10:31;26.50;44.20
3186;DHT22;1604;53.700;10.252;2023-06-04T11:13:34;26.50;45.90
3186;DHT22;1604;53.700;10.252;2023-06-04T11:16:36;26.50;44.70
3186;DHT22;1604;53.700;10.252;2023-06-04T11:19:39;26.50;44.20
3186;DHT22;1604;53.700;10.252;2023-06-04T11:22:41;26.50;44.90
3186;DHT22;1604;53.700;10.252;2023-06-04T11:25:43;26.60;46.90
3186;DHT22;1604;53.700;10.252;2023-06-04T11:28:48;26.60;46.10
3186;DHT22;1604;53.700;10.252;2023-06-04T11:31:50;26.60;44.90
3186;DHT22;1604;53.700;10.252;2023-06-04T11:35:03;26.60;45.80
3186;DHT22;1604;53.700;10.252;2023-06-04T11:38:06;26.90;44.60
3186;DHT22;1604;53.700;10.252;2023-06-04T11:41:08;27.00;44.60
3186;DHT22;1604;53.700;10.252;2023-06-04T11:44:11;26.90;45.20
3186;DHT22;1604;53.700;10.252;2023-06-04T11:47:15;26.90;45.30
3186;DHT22;1604;53.700;10.252;2023-06-04T11:50:18;26.80;44.70
3186;DHT22;1604;53.700;10.252;2023-06-04T11:53:20;26.90;43.90
3186;DHT22;1604;53.700;10.252;2023-06-04T11:56:24;26.80;43.70
3186;DHT22;1604;53.700;10.252;2023-06-04T11:59:27;26.70;45.50
3186;DHT22;1604;53.700;10.252;2023-06-04T12:02:30;26.70;44.20
3186;DHT22;1604;53.700;10.252;2023-06-04T12:05:33;26.70;43.70
3186;DHT22;1604;53.700;10.252;2023-06-04T12:08:45;26.60;44.20
3186;DHT22;1604;53.700;10.252;2023-06-04T12:11:46;26.50;45.30
3186;DHT22;1604;53.700;10.252;2023-06-04T12:14:56;26.60;43.60
3186;DHT22;1604;53.700;10.252;2023-06-04T12:17:58;26.80;44.40
3186;DHT22;1604;53.700;10.252;2023-06-04T12:21:01;27.00;43.20
3186;DHT22;1604;53.700;10.252;2023-06-04T12:24:08;26.90;42.40
3186;DHT22;1604;53.700;10.252;2023-06-04T12:27:10;27.10;43.50
3186;DHT22;1604;53.700;10.252;2023-06-04T12:30:12;27.20;43.00
3186;DHT22;1604;53.700;10.252;2023-06-04T12:33:16;27.10;42.00
3186;DHT22;1604;53.700;10.252;2023-06-04T12:36:19;27.00;42.40
3186;DHT22;1604;53.700;10.252;2023-06-04T12:39:21;27.00;42.20
3186;DHT22;1604;53.700;10.252;2023-06-04T12:42:23;27.00;41.90
3186;DHT22;1604;53.700;10.252;2023-06-04T12:45:25;26.90;41.80
3186;DHT22;1604;53.700;10.252;2023-06-04T12:48:27;26.90;42.30
3186;DHT22;1604;53.700;10.252;2023-06-04T12:51:31;26.90;42.30
3186;DHT22;1604;53.700;10.252;2023-06-04T12:54:33;26.90;42.70
3186;DHT22;1604;53.700;10.252;2023-06-04T12:57:35;26.90;41.90
3186;DHT22;1604;53.700;10.252;2023-06-04T13:00:36;26.90;41.60
3186;DHT22;1604;53.700;10.252;2023-06-04T13:03:39;27.00;42.30
3186;DHT22;1604;53.700;10.252;2023-06-04T13:06:43;27.10;41.10
3186;DHT22;1604;53.700;10.252;2023-06-04T13:09:46;27.00;41.30
3186;DHT22;1604;53.700;10.252;2023-06-04T13:12:48;27.00;41.70
3186;DHT22;1604;53.700;10.252;2023-06-04T13:15:50;27.20;41.60
3186;DHT22;1604;53.700;10.252;2023-06-04T13:18:52;27.30;41.90
3186;DHT22;1604;53.700;10.252;2023-06-04T13:21:56;27.30;41.90
3186;DHT22;1604;53.700;10.252;2023-06-04T13:24:58;27.30;41.40
3186;DHT22;1604;53.700;10.252;2023-06-04T13:28:00;27.30;40.90
3186;DHT22;1604;53.700;10.252;2023-06-04T13:31:02;27.20;41.70
3186;DHT22;1604;53.700;10.252;2023-06-04T13:34:04;27.10;42.40
3186;DHT22;1604;53.700;10.252;2023-06-04T13:37:08;26.90;42.70
3186;DHT22;1604;53.700;10.252;2023-06-04T13:40:12;26.80;42.60
3186;DHT22;1604;53.700;10.252;2023-06-04T13:43:14;26.90;42.50
3186;DHT22;1604;53.700;10.252;2023-06-04T13:46:16;26.90;43.50
3186;DHT22;1604;53.700;10.252;2023-06-04T13:49:18;26.90;42.40
3186;DHT22;1604;53.700;10.252;2023-06-04T13:52:21;26.90;43.30
3186;DHT22;1604;53.700;10.252;2023-06-04T13:55:23;26.80;44.00
3186;DHT22;1604;53.700;10.252;2023-06-04T13:58:25;26.80;42.70
3186;DHT22;1604;53.700;10.252;2023-06-04T14:01:27;26.70;42.10
3186;DHT22;1604;53.700;10.252;2023-06-04T14:04:29;26.50;42.60
3186;DHT22;1604;53.700;10.252;2023-06-04T14:07:33;26.40;43.00
3186;DHT22;1604;53.700;10.252;2023-06-04T14:10:35;26.20;43.30
3186;DHT22;1604;53.700;10.252;2023-06-04T14:13:41;26.10;44.20
3186;DHT22;1604;53.700;10.252;2023-06-04T14:16:45;26.10;44.10
3186;DHT22;1604;53.700;10.252;2023-06-04T14:19:47;26.10;44.60
3186;DHT22;1604;53.700;10.252;2023-06-04T14:22:51;26.10;43.90
3186;DHT22;1604;53.700;10.252;2023-06-04T14:25:53;26.10;43.90
3186;DHT22;1604;53.700;10.252;2023-06-04T14:28:54;26.20;45.10
3186;DHT22;1604;53.700;10.252;2023-06-04T14:31:56;26.00;44.10
3186;DHT22;1604;53.700;10.252;2023-06-04T14:34:58;26.00;45.00
3186;DHT22;1604;53.700;10.252;2023-06-04T14:38:02;26.00;45.20
3186;DHT22;1604;53.700;10.252;2023-06-04T14:41:04;26.10;46.20
3186;DHT22;1604;53.700;10.252;2023-06-04T14:44:06;26.00;45.90
3186;DHT22;1604;53.700;10.252;2023-06-04T14:47:08;26.00;46.30
3186;DHT22;1604;53.700;10.252;2023-06-04T14:50:10;25.80;44.60
3186;DHT22;1604;53.700;10.252;2023-06-04T14:53:13;25.80;45.60
3186;DHT22;1604;53.700;10.252;2023-06-04T14:56:16;25.80;47.50
3186;DHT22;1604;53.700;10.252;2023-06-04T14:59:18;25.70;46.80
3186;DHT22;1604;53.700;10.252;2023-06-04T15:02:20;25.80;46.90
3186;DHT22;1604;53.700;10.252;2023-06-04T15:05:22;25.70;47.20
3186;DHT22;1604;53.700;10.252;2023-06-04T15:08:25;25.70;45.60
3186;DHT22;1604;53.700;10.252;2023-06-04T15:11:27;25.60;46.60
3186;DHT22;1604;53.700;10.252;2023-06-04T15:14:29;25.60;45.90
3186;DHT22;1604;53.700;10.252;2023-06-04T15:17:31;25.50;45.90
3186;DHT22;1604;53.700;10.252;2023-06-04T15:20:33;25.30;47.40
3186;DHT22;1604;53.700;10.252;2023-06-04T15:23:36;25.30;48.20
3186;DHT22;1604;53.700;10.252;2023-06-04T15:26:38;25.20;47.60
3186;DHT22;1604;53.700;10.252;2023-06-04T15:29:40;25.20;47.60
3186;DHT22;1604;53.700;10.252;2023-06-04T15:32:42;25.10;47.60
3186;DHT22;1604;53.700;10.252;2023-06-04T15:35:44;25.00;47.00
3186;DHT22;1604;53.700;10.252;2023-06-04T15:38:49;24.90;47.80
3186;DHT22;1604;53.700;10.252;2023-06-04T15:41:51;24.90;47.80
3186;DHT22;1604;53.700;10.252;2023-06-04T15:44:53;24.90;47.80
3186;DHT22;1604;53.700;10.252;2023-06-04T15:47:56;24.70;47.50
3186;DHT22;1604;53.700;10.252;2023-06-04T15:50:58;24.60;47.50
3186;DHT22;1604;53.700;10.252;2023-06-04T15:54:01;24.50;49.10
3186;DHT22;1604;53.700;10.252;2023-06-04T15:57:04;24.50;49.30
3186;DHT22;1604;53.700;10.252;2023-06-04T16:00:08;24.30;48.20
3186;DHT22;1604;53.700;10.252;2023-06-04T16:03:10;24.10;48.90
3186;DHT22;1604;53.700;10.252;2023-06-04T16:06:12;24.00;49.50
3186;DHT22;1604;53.700;10.252;2023-06-04T16:09:15;23.90;49.80
3186;DHT22;1604;53.700;10.252;2023-06-04T16:12:17;23.80;50.30
3186;DHT22;1604;53.700;10.252;2023-06-04T16:15:19;23.50;51.40
3186;DHT22;1604;53.700;10.252;2023-06-04T16:18:21;23.40;53.20
3186;DHT22;1604;53.700;10.252;2023-06-04T16:21:24;23.20;54.00
3186;DHT22;1604;53.700;10.252;2023-06-04T16:24:27;23.00;54.70
3186;DHT22;1604;53.700;10.252;2023-06-04T16:27:30;22.80;54.30
3186;DHT22;1604;53.700;10.252;2023-06-04T16:30:32;22.60;54.70
3186;DHT22;1604;53.700;10.252;2023-06-04T16:33:34;22.50;55.90
3186;DHT22;1604;53.700;10.252;2023-06-04T16:36:36;22.40;56.50
3186;DHT22;1604;53.700;10.252;2023-06-04T16:39:39;22.30;56.20
3186;DHT22;1604;53.700;10.252;2023-06-04T16:42:41;22.30;56.40
3186;DHT22;1604;53.700;10.252;2023-06-04T16:45:45;22.20;56.20
3186;DHT22;1604;53.700;10.252;2023-06-04T16:48:47;22.10;54.60
3186;DHT22;1604;53.700;10.252;2023-06-04T16:51:49;22.00;55.60
3186;DHT22;1604;53.700;10.252;2023-06-04T16:54:52;22.00;55.70
3186;DHT22;1604;53.700;10.252;2023-06-04T16:57:55;21.80;56.30
3186;DHT22;1604;53.700;10.252;2023-06-04T17:00:57;21.70;56.60
3186;DHT22;1604;53.700;10.252;2023-06-04T17:04:00;21.60;57.20
3186;DHT22;1604;53.700;10.252;2023-06-04T17:07:02;21.50;58.10
3186;DHT22;1604;53.700;10.252;2023-06-04T17:10:06;21.50;58.20
3186;DHT22;1604;53.700;10.252;2023-06-04T17:13:08;21.40;58.20
3186;DHT22;1604;53.700;10.252;2023-06-04T17:16:10;21.30;58.20
3186;DHT22;1604;53.700;10.252;2023-06-04T17:19:13;21.30;58.70
3186;DHT22;1604;53.700;10.252;2023-06-04T17:22:15;21.20;59.60
3186;DHT22;1604;53.700;10.252;2023-06-04T17:25:19;21.20;59.20
3186;DHT22;1604;53.700;10.252;2023-06-04T17:28:21;21.10;59.80
3186;DHT22;1604;53.700;10.252;2023-06-04T17:31:23;21.00;60.00
3186;DHT22;1604;53.700;10.252;2023-06-04T17:34:25;20.90;60.30
3186;DHT22;1604;53.700;10.252;2023-06-04T17:37:27;20.90;61.00
3186;DHT22;1604;53.700;10.252;2023-06-04T17:40:30;20.80;60.90
3186;DHT22;1604;53.700;10.252;2023-06-04T17:43:32;20.60;60.70
3186;DHT22;1604;53.700;10.252;2023-06-04T17:46:35;20.50;61.30
3186;DHT22;1604;53.700;10.252;2023-06-04T17:49:37;20.40;61.90
3186;DHT22;1604;53.700;10.252;2023-06-04T17:52:39;20.20;62.00
3186;DHT22;1604;53.700;10.252;2023-06-04T17:55:43;20.10;62.40
3186;DHT22;1604;53.700;10.252;2023-06-04T17:58:45;20.00;62.50
3186;DHT22;1604;53.700;10.252;2023-06-04T18:01:47;20.00;62.60
3186;DHT22;1604;53.700;10.252;2023-06-04T18:04:50;19.90;62.80
3186;DHT22;1604;53.700;10.252;2023-06-04T18:07:52;19.80;63.30
3186;DHT22;1604;53.700;10.252;2023-06-04T18:10:56;19.70;64.10
3186;DHT22;1604;53.700;10.252;2023-06-04T18:13:59;19.60;64.60
3186;DHT22;1604;53.700;10.252;2023-06-04T18:17:01;19.50;65.50
3186;DHT22;1604;53.700;10.252;2023-06-04T18:20:06;19.40;66.70
3186;DHT22;1604;53.700;10.252;2023-06-04T18:23:08;19.30;67.90
3186;DHT22;1604;53.700;10.252;2023-06-04T18:26:14;19.10;68.30
3186;DHT22;1604;53.700;10.252;2023-06-04T18:29:16;19.00;69.00
3186;DHT22;1604;53.700;10.252;2023-06-04T18:32:18;18.90;69.70
3186;DHT22;1604;53.700;10.252;2023-06-04T18:35:20;18.80;70.40
3186;DHT22;1604;53.700;10.252;2023-06-04T18:38:22;18.70;71.30
3186;DHT22;1604;53.700;10.252;2023-06-04T18:41:26;18.60;72.10
3186;DHT22;1604;53.700;10.252;2023-06-04T18:44:30;18.50;72.80
3186;DHT22;1604;53.700;10.252;2023-06-04T18:47:33;18.50;73.40
3186;DHT22;1604;53.700;10.252;2023-06-04T18:50:34;18.40;73.90
3186;DHT22;1604;53.700;10.252;2023-06-04T18:53:39;18.30;74.50
3186;DHT22;1604;53.700;10.252;2023-06-04T18:56:42;18.20;75.20
3186;DHT22;1604;53.700;10.252;2023-06-04T18:59:44;18.20;75.50
3186;DHT22;1604;53.700;10.252;2023-06-04T19:02:46;18.10;76.00
3186;DHT22;1604;53.700;10.252;2023-06-04T19:05:48;18.00;76.10
3186;DHT22;1604;53.700;10.252;2023-06-04T19:08:51;17.90;76.50
3186;DHT22;1604;53.700;10.252;2023-06-04T19:11:54;17.90;76.60
3186;DHT22;1604;53.700;10.252;2023-06-04T19:14:56;17.90;76.30
3186;DHT22;1604;53.700;10.252;2023-06-04T19:17:58;17.90;79.00
3186;DHT22;1604;53.700;10.252;2023-06-04T19:21:00;17.80;83.70
3186;DHT22;1604;53.700;10.252;2023-06-04T19:24:02;17.70;85.10
3186;DHT22;1604;53.700;10.252;2023-06-04T19:27:05;17.60;87.00
3186;DHT22;1604;53.700;10.252;2023-06-04T19:30:08;17.50;88.10
3186;DHT22;1604;53.700;10.252;2023-06-04T19:33:11;17.40;89.10
3186;DHT22;1604;53.700;10.252;2023-06-04T19:36:13;17.30;89.40
3186;DHT22;1604;53.700;10.252;2023-06-04T19:39:17;17.30;89.40